createdAt,value
2018-09-19T00:00:48.255Z,65.24
2018-09-19T00:03:16.159Z,65.91
2018-09-19T00:05:44.101Z,65.86
2018-09-19T00:08:12.062Z,65.98
2018-09-19T00:10:40.020Z,65.09
2018-09-19T00:13:08.034Z,64.89
2018-09-19T00:15:35.942Z,65.25
2018-09-19T00:18:03.889Z,66.73
2018-09-19T00:20:31.846Z,66.41
2018-09-19T00:22:59.934Z,66.28
2018-09-19T00:25:27.884Z,67.20
2018-09-19T00:27:55.768Z,66.73
2018-09-19T00:30:23.743Z,66.06
2018-09-19T00:32:51.640Z,66.02
2018-09-19T00:35:19.584Z,66.41
2018-09-19T00:37:48.164Z,66.31
2018-09-19T00:40:16.195Z,65.65
2018-09-19T00:42:44.388Z,65.65
2018-09-19T00:45:12.612Z,64.97
2018-09-19T00:47:40.559Z,65.77
2018-09-19T00:50:08.695Z,65.97
2018-09-19T00:52:36.575Z,65.43
2018-09-19T00:55:04.485Z,66.04
2018-09-19T00:57:32.432Z,66.67
2018-09-19T01:00:00.414Z,67.45
2018-09-19T01:02:28.458Z,66.51
2018-09-19T01:04:56.413Z,68.54
2018-09-19T01:07:24.435Z,69.11
2018-09-19T01:09:52.604Z,69.07
2018-09-19T01:12:20.647Z,69.71
2018-09-19T01:14:48.713Z,70.11
2018-09-19T01:17:16.687Z,70.04
2018-09-19T01:19:44.582Z,70.94
2018-09-19T01:22:12.602Z,70.13
2018-09-19T01:24:40.518Z,69.69
2018-09-19T01:27:08.558Z,69.79
2018-09-19T01:29:36.554Z,69.77
2018-09-19T01:32:04.540Z,70.33
2018-09-19T01:34:32.542Z,70.20
2018-09-19T01:37:00.614Z,71.21
2018-09-19T01:39:28.577Z,71.19
2018-09-19T01:41:56.568Z,70.15
2018-09-19T01:44:24.496Z,71.20
2018-09-19T01:46:52.412Z,72.41
2018-09-19T01:49:20.399Z,73.36
2018-09-19T01:51:52.734Z,72.96
2018-09-19T01:54:20.780Z,73.61
2018-09-19T01:56:48.694Z,73.44
2018-09-19T01:59:16.790Z,73.41
2018-09-19T02:01:44.847Z,73.96
2018-09-19T02:04:12.883Z,72.63
2018-09-19T02:06:40.777Z,72.12
2018-09-19T02:09:11.342Z,72.81
2018-09-19T02:11:40.550Z,74.56
2018-09-19T02:14:09.127Z,74.52
2018-09-19T02:16:37.417Z,75.08
2018-09-19T02:19:05.553Z,74.06
2018-09-19T02:21:33.495Z,73.72
2018-09-19T02:24:01.464Z,73.62
2018-09-19T02:26:29.496Z,73.54
2018-09-19T02:28:57.442Z,72.37
2018-09-19T02:31:25.443Z,72.21
2018-09-19T02:33:53.708Z,71.84
2018-09-19T02:36:25.660Z,72.25
2018-09-19T02:38:55.141Z,73.54
2018-09-19T02:41:23.106Z,73.27
2018-09-19T02:43:51.553Z,72.77
2018-09-19T02:46:19.525Z,72.83
2018-09-19T02:48:48.049Z,72.90
2018-09-19T02:51:16.779Z,73.00
2018-09-19T02:53:45.770Z,72.89
2018-09-19T02:56:13.776Z,73.17
2018-09-19T02:58:41.797Z,72.43
2018-09-19T03:01:10.704Z,72.99
2018-09-19T03:03:39.505Z,73.11
2018-09-19T03:06:07.440Z,72.17
2018-09-19T03:08:35.566Z,72.46
2018-09-19T03:11:03.586Z,72.31
2018-09-19T03:13:31.509Z,72.05
2018-09-19T03:15:59.563Z,73.88
2018-09-19T03:18:27.660Z,73.42
2018-09-19T03:20:55.641Z,72.67
2018-09-19T03:23:23.951Z,73.33
2018-09-19T03:25:51.948Z,73.55
2018-09-19T03:28:19.874Z,73.01
2018-09-19T03:30:48.249Z,73.58
2018-09-19T03:33:16.265Z,74.38
2018-09-19T03:35:44.256Z,75.92
2018-09-19T03:38:12.192Z,75.60
2018-09-19T03:40:40.131Z,76.54
2018-09-19T03:43:08.097Z,75.95
2018-09-19T03:45:36.021Z,76.05
2018-09-19T03:48:04.046Z,76.20
2018-09-19T03:50:31.925Z,77.13
2018-09-19T03:52:59.924Z,77.14
2018-09-19T03:55:27.861Z,77.31
2018-09-19T03:57:55.850Z,77.17
2018-09-19T04:00:23.985Z,77.06
2018-09-19T04:02:51.905Z,77.08
2018-09-19T04:05:19.872Z,77.00
2018-09-19T04:07:47.866Z,76.87
2018-09-19T04:10:15.857Z,77.58
2018-09-19T04:12:43.921Z,78.11
2018-09-19T04:15:11.958Z,78.33
2018-09-19T04:17:40.024Z,78.37
2018-09-19T04:20:08.106Z,78.84
2018-09-19T04:22:36.997Z,78.89
2018-09-19T04:25:05.200Z,79.34
2018-09-19T04:27:33.324Z,78.92
2018-09-19T04:30:01.657Z,78.87
2018-09-19T04:32:29.787Z,78.08
2018-09-19T04:34:57.812Z,77.26
2018-09-19T04:37:25.903Z,76.51
2018-09-19T04:39:54.401Z,76.34
2018-09-19T04:42:22.358Z,75.34
2018-09-19T04:44:51.060Z,75.17
2018-09-19T04:47:19.005Z,73.72
2018-09-19T04:49:47.104Z,73.55
2018-09-19T04:52:15.178Z,74.87
2018-09-19T04:54:46.158Z,74.97
2018-09-19T04:57:14.206Z,75.14
2018-09-19T04:59:42.108Z,76.21
2018-09-19T05:02:10.274Z,76.27
2018-09-19T05:04:38.242Z,75.59
2018-09-19T05:07:06.348Z,74.73
2018-09-19T05:09:34.291Z,74.42
2018-09-19T05:12:02.298Z,73.65
2018-09-19T05:14:31.165Z,73.81
2018-09-19T05:16:59.099Z,73.11
2018-09-19T05:19:27.121Z,72.37
2018-09-19T05:21:55.188Z,71.29
2018-09-19T05:24:23.522Z,72.47
2018-09-19T05:26:51.749Z,73.20
2018-09-19T05:29:19.990Z,71.95
2018-09-19T05:31:47.978Z,71.83
2018-09-19T05:34:16.143Z,71.52
2018-09-19T05:36:44.067Z,70.10
2018-09-19T05:39:11.974Z,71.76
2018-09-19T05:41:39.950Z,71.05
2018-09-19T05:44:07.945Z,71.13
2018-09-19T05:46:36.016Z,71.11
2018-09-19T05:49:03.954Z,68.66
2018-09-19T05:51:31.926Z,69.79
2018-09-19T05:53:59.810Z,67.54
2018-09-19T05:56:27.715Z,68.03
2018-09-19T05:58:55.692Z,68.83
2018-09-19T06:01:23.613Z,68.13
2018-09-19T06:03:51.586Z,67.84
2018-09-19T06:06:20.461Z,66.36
2018-09-19T06:08:48.639Z,66.76
2018-09-19T06:11:16.666Z,66.16
2018-09-19T06:13:44.762Z,66.21
2018-09-19T06:16:12.734Z,67.06
2018-09-19T06:18:40.698Z,66.54
2018-09-19T06:21:08.643Z,67.88
2018-09-19T06:23:36.667Z,68.56
2018-09-19T06:26:04.673Z,68.60
2018-09-19T06:28:32.805Z,69.11
2018-09-19T06:31:01.281Z,67.60
2018-09-19T06:33:29.288Z,67.45
2018-09-19T06:35:57.357Z,66.15
2018-09-19T06:38:25.479Z,64.75
2018-09-19T06:40:54.691Z,63.28
2018-09-19T06:43:22.663Z,61.28
2018-09-19T06:45:51.054Z,61.78
2018-09-19T06:48:19.003Z,60.32
2018-09-19T06:50:54.385Z,59.78
2018-09-19T06:53:22.624Z,58.29
2018-09-19T06:55:50.661Z,60.16
2018-09-19T06:58:18.736Z,59.83
2018-09-19T07:00:46.801Z,58.46
2018-09-19T07:03:14.952Z,55.89
2018-09-19T07:05:43.112Z,56.47
2018-09-19T07:08:11.277Z,55.82
2018-09-19T07:10:40.011Z,58.92
2018-09-19T07:13:07.965Z,54.94
2018-09-19T07:15:36.107Z,53.92
2018-09-19T07:18:04.208Z,50.46
2018-09-19T07:20:32.280Z,52.58
2018-09-19T07:23:00.275Z,53.46
2018-09-19T07:25:28.219Z,52.52
2018-09-19T07:27:56.145Z,51.87
2018-09-19T07:30:24.156Z,49.98
2018-09-19T07:32:52.194Z,48.36
2018-09-19T07:35:23.243Z,49.20
2018-09-19T07:37:51.320Z,49.96
2018-09-19T07:40:19.493Z,49.28
2018-09-19T07:42:47.474Z,52.92
2018-09-19T07:45:15.496Z,52.74
2018-09-19T07:47:43.564Z,52.65
2018-09-19T07:50:11.600Z,52.79
2018-09-19T07:52:39.573Z,50.35
2018-09-19T07:55:07.653Z,49.20
2018-09-19T07:57:39.292Z,47.48
2018-09-19T08:00:08.251Z,46.76
2018-09-19T08:02:36.147Z,46.59
2018-09-19T08:05:04.273Z,46.36
2018-09-19T08:07:32.747Z,47.04
2018-09-19T08:10:01.616Z,45.99
2018-09-19T08:12:29.626Z,46.53
2018-09-19T08:14:58.103Z,47.66
2018-09-19T08:17:26.752Z,46.81
2018-09-19T08:19:58.225Z,45.31
2018-09-19T08:22:26.532Z,42.92
2018-09-19T08:24:55.521Z,44.29
2018-09-19T08:27:23.620Z,43.97
2018-09-19T08:29:51.897Z,43.05
2018-09-19T08:32:19.921Z,44.30
2018-09-19T08:34:47.901Z,43.65
2018-09-19T08:37:16.094Z,41.85
2018-09-19T08:39:44.093Z,41.85
2018-09-19T08:42:12.217Z,40.42
2018-09-19T08:44:40.432Z,40.24
2018-09-19T08:47:08.361Z,40.16
2018-09-19T08:49:36.418Z,41.49
2018-09-19T08:52:04.676Z,45.22
2018-09-19T08:54:32.735Z,44.85
2018-09-19T08:57:01.419Z,45.29
2018-09-19T08:59:29.900Z,46.68
2018-09-19T09:01:58.083Z,46.19
2018-09-19T09:04:26.646Z,44.83
2018-09-19T09:06:55.047Z,43.65
2018-09-19T09:09:23.121Z,42.55
2018-09-19T09:11:51.065Z,41.95
2018-09-19T09:14:19.824Z,41.01
2018-09-19T09:16:48.022Z,40.82
2018-09-19T09:19:16.079Z,39.64
2018-09-19T09:21:44.225Z,39.36
2018-09-19T09:24:13.008Z,39.79
2018-09-19T09:26:41.338Z,39.51
2018-09-19T09:29:09.328Z,40.47
2018-09-19T09:31:37.313Z,41.47
2018-09-19T09:34:05.482Z,41.34
2018-09-19T09:36:35.471Z,40.59
2018-09-19T09:39:04.434Z,37.98
2018-09-19T09:41:32.411Z,36.48
2018-09-19T09:44:01.412Z,36.54
2018-09-19T09:46:29.776Z,35.64
2018-09-19T09:48:58.154Z,33.61
2018-09-19T09:51:26.436Z,35.11
2018-09-19T09:53:56.449Z,35.32
2018-09-19T09:56:24.495Z,34.81
2018-09-19T09:58:52.656Z,33.92
2018-09-19T10:01:20.783Z,34.42
2018-09-19T10:03:48.916Z,36.78
2018-09-19T10:06:16.963Z,36.03
2018-09-19T10:08:45.162Z,35.37
2018-09-19T10:11:13.173Z,36.02
2018-09-19T10:13:41.205Z,35.95
2018-09-19T10:16:09.810Z,36.63
2018-09-19T10:18:37.906Z,37.13
2018-09-19T10:21:06.481Z,36.52
2018-09-19T10:23:34.440Z,35.41
2018-09-19T10:26:02.562Z,34.23
2018-09-19T10:28:30.550Z,35.88
2018-09-19T10:30:58.504Z,36.10
2018-09-19T10:33:26.448Z,36.99
2018-09-19T10:35:54.460Z,37.05
2018-09-19T10:38:22.408Z,34.84
2018-09-19T10:40:50.412Z,35.48
2018-09-19T10:43:18.352Z,35.05
2018-09-19T10:45:46.399Z,36.28
2018-09-19T10:48:14.437Z,35.90
2018-09-19T10:50:43.401Z,36.36
2018-09-19T10:53:11.423Z,36.22
2018-09-19T10:55:39.345Z,33.26
2018-09-19T10:58:08.134Z,33.84
2018-09-19T11:00:36.177Z,33.68
2018-09-19T11:03:04.274Z,34.83
2018-09-19T11:05:32.853Z,33.82
2018-09-19T11:08:00.973Z,34.91
2018-09-19T11:10:28.992Z,36.41
2018-09-19T11:12:56.966Z,36.52
2018-09-19T11:15:25.107Z,35.73
2018-09-19T11:17:53.136Z,35.91
2018-09-19T11:20:21.088Z,34.78
2018-09-19T11:22:48.970Z,33.29
2018-09-19T11:25:17.062Z,34.48
2018-09-19T11:27:45.073Z,33.23
2018-09-19T11:30:13.050Z,33.62
2018-09-19T11:32:41.093Z,32.70
2018-09-19T11:35:09.093Z,33.29
2018-09-19T11:37:36.993Z,29.38
2018-09-19T11:40:05.090Z,30.09
2018-09-19T11:42:33.038Z,31.06
2018-09-19T11:45:02.204Z,29.73
2018-09-19T11:47:30.177Z,29.34
2018-09-19T11:49:58.350Z,29.62
2018-09-19T11:52:26.463Z,31.72
2018-09-19T11:54:54.756Z,32.88
2018-09-19T11:57:23.403Z,33.05
2018-09-19T11:59:55.270Z,32.65
2018-09-19T12:02:23.356Z,33.39
2018-09-19T12:04:51.689Z,33.56
2018-09-19T12:07:20.711Z,33.29
2018-09-19T12:09:48.663Z,33.21
2018-09-19T12:12:16.550Z,32.89
2018-09-19T12:14:44.490Z,31.57
2018-09-19T12:17:12.494Z,32.07
2018-09-19T12:19:40.401Z,31.89
2018-09-19T12:22:08.539Z,31.87
2018-09-19T12:24:36.612Z,29.73
2018-09-19T12:27:04.545Z,28.83
2018-09-19T12:29:36.597Z,28.71
2018-09-19T12:32:05.238Z,29.96
2018-09-19T12:34:33.337Z,32.25
2018-09-19T12:37:01.467Z,32.37
2018-09-19T12:39:29.424Z,30.83
2018-09-19T12:41:57.483Z,31.00
2018-09-19T12:44:25.491Z,30.02
2018-09-19T12:46:53.483Z,29.79
2018-09-19T12:49:21.508Z,31.54
2018-09-19T12:51:49.634Z,31.09
2018-09-19T12:54:17.590Z,31.84
2018-09-19T12:56:48.025Z,31.79
2018-09-19T12:59:16.200Z,31.32
2018-09-19T13:01:44.992Z,31.79
2018-09-19T13:04:12.975Z,31.56
2018-09-19T13:06:41.014Z,31.50
2018-09-19T13:09:10.889Z,31.58
2018-09-19T13:11:39.071Z,31.60
2018-09-19T13:14:07.367Z,32.52
2018-09-19T13:16:35.436Z,33.15
2018-09-19T13:19:03.399Z,33.56
2018-09-19T13:21:31.373Z,34.19
2018-09-19T13:23:59.303Z,33.02
2018-09-19T13:26:27.332Z,32.74
2018-09-19T13:28:55.682Z,33.89
2018-09-19T13:31:23.664Z,33.45
2018-09-19T13:33:51.701Z,31.95
2018-09-19T13:36:20.469Z,32.56
2018-09-19T13:38:48.568Z,32.65
2018-09-19T13:41:16.477Z,32.23
2018-09-19T13:43:44.749Z,33.36
2018-09-19T13:46:12.891Z,32.12
2018-09-19T13:48:42.777Z,30.98
2018-09-19T13:51:17.462Z,30.74
2018-09-19T13:53:45.465Z,31.39
2018-09-19T13:56:13.514Z,30.33
2018-09-19T13:58:41.545Z,30.99
2018-09-19T14:01:12.960Z,32.50
2018-09-19T14:03:44.880Z,33.42
2018-09-19T14:06:14.023Z,32.85
2018-09-19T14:08:42.706Z,32.48
2018-09-19T14:11:11.411Z,32.15
2018-09-19T14:13:41.927Z,33.91
2018-09-19T14:16:09.858Z,33.35
2018-09-19T14:18:37.881Z,33.51
2018-09-19T14:21:05.913Z,33.61
2018-09-19T14:23:33.945Z,33.43
2018-09-19T14:26:02.560Z,34.24
2018-09-19T14:28:30.562Z,33.44
2018-09-19T14:30:58.478Z,32.73
2018-09-19T14:33:26.562Z,34.05
2018-09-19T14:35:54.671Z,33.36
2018-09-19T14:38:22.772Z,34.91
2018-09-19T14:40:51.031Z,34.19
2018-09-19T14:43:19.173Z,33.87
2018-09-19T14:45:47.267Z,33.29
2018-09-19T14:48:15.430Z,31.92
2018-09-19T14:50:43.622Z,33.39
2018-09-19T14:53:11.706Z,33.00
2018-09-19T14:55:39.759Z,32.81
2018-09-19T14:58:07.861Z,33.56
2018-09-19T15:00:36.098Z,33.13
2018-09-19T15:03:04.366Z,32.98
2018-09-19T15:05:32.559Z,33.21
2018-09-19T15:08:00.589Z,32.57
2018-09-19T15:10:29.661Z,33.15
2018-09-19T15:12:57.607Z,33.67
2018-09-19T15:15:25.587Z,34.54
2018-09-19T15:17:54.190Z,34.93
2018-09-19T15:20:22.177Z,34.56
2018-09-19T15:22:50.171Z,35.08
2018-09-19T15:25:18.193Z,35.35
2018-09-19T15:27:47.216Z,35.46
2018-09-19T15:30:15.475Z,34.89
2018-09-19T15:32:43.521Z,36.01
2018-09-19T15:35:11.545Z,35.65
2018-09-19T15:37:39.679Z,36.10
2018-09-19T15:40:07.566Z,36.10
2018-09-19T15:42:35.844Z,35.83
2018-09-19T15:45:04.970Z,36.69
2018-09-19T15:47:33.066Z,36.47
2018-09-19T15:50:01.814Z,35.93
2018-09-19T15:52:29.870Z,36.05
2018-09-19T15:54:59.299Z,36.41
2018-09-19T15:57:27.514Z,36.94
2018-09-19T15:59:57.912Z,37.26
2018-09-19T16:02:26.042Z,37.45
2018-09-19T16:04:54.677Z,37.76
2018-09-19T16:07:22.771Z,37.35
2018-09-19T16:09:50.952Z,37.32
2018-09-19T16:12:20.025Z,38.16
2018-09-19T16:14:47.978Z,37.72
2018-09-19T16:17:15.989Z,38.39
2018-09-19T16:19:44.125Z,38.22
2018-09-19T16:22:12.159Z,38.98
2018-09-19T16:24:40.329Z,39.31
2018-09-19T16:27:08.879Z,40.52
2018-09-19T16:29:36.876Z,40.49
2018-09-19T16:32:04.958Z,39.90
2018-09-19T16:34:33.446Z,39.71
2018-09-19T16:37:02.300Z,39.65
2018-09-19T16:39:30.302Z,39.50
2018-09-19T16:41:58.277Z,41.37
2018-09-19T16:44:26.587Z,41.95
2018-09-19T16:46:54.711Z,41.09
2018-09-19T16:49:22.726Z,41.14
2018-09-19T16:51:50.715Z,42.03
2018-09-19T16:54:18.835Z,41.60
2018-09-19T16:56:47.687Z,41.47
2018-09-19T16:59:15.716Z,43.01
2018-09-19T17:01:44.813Z,42.93
2018-09-19T17:04:12.910Z,43.55
2018-09-19T17:06:41.036Z,43.69
2018-09-19T17:09:09.384Z,44.53
2018-09-19T17:11:37.392Z,44.60
2018-09-19T17:14:05.849Z,44.30
2018-09-19T17:16:34.289Z,44.71
2018-09-19T17:19:02.477Z,45.32
2018-09-19T17:21:30.418Z,45.19
2018-09-19T17:23:58.728Z,43.88
2018-09-19T17:26:26.647Z,44.54
2018-09-19T17:28:54.840Z,44.62
2018-09-19T17:31:22.866Z,45.43
2018-09-19T17:33:50.850Z,45.32
2018-09-19T17:36:18.922Z,44.63
2018-09-19T17:38:46.844Z,45.43
2018-09-19T17:41:14.988Z,46.51
2018-09-19T17:43:42.937Z,46.18
2018-09-19T17:46:11.063Z,46.20
2018-09-19T17:48:42.071Z,46.95
2018-09-19T17:51:13.142Z,47.46
2018-09-19T17:53:41.625Z,47.71
2018-09-19T17:56:09.611Z,47.89
2018-09-19T17:58:37.899Z,48.00
2018-09-19T18:01:06.354Z,47.75
2018-09-19T18:03:34.495Z,47.85
2018-09-19T18:06:02.522Z,48.01
2018-09-19T18:08:30.756Z,48.68
2018-09-19T18:10:58.754Z,49.85
2018-09-19T18:13:26.695Z,49.61
2018-09-19T18:15:55.491Z,50.29
2018-09-19T18:18:23.541Z,50.12
2018-09-19T18:20:51.775Z,50.09
2018-09-19T18:23:19.733Z,49.86
2018-09-19T18:25:47.839Z,50.03
2018-09-19T18:28:16.243Z,49.96
2018-09-19T18:30:44.160Z,49.23
2018-09-19T18:33:12.161Z,49.32
2018-09-19T18:35:40.202Z,49.41
2018-09-19T18:38:09.173Z,49.34
2018-09-19T18:40:38.861Z,49.72
2018-09-19T18:43:07.077Z,49.97
2018-09-19T18:45:35.345Z,51.07
2018-09-19T18:48:03.645Z,51.58
2018-09-19T18:50:31.997Z,51.55
2018-09-19T18:52:59.964Z,51.54
2018-09-19T18:55:28.989Z,51.78
2018-09-19T18:57:56.959Z,52.72
2018-09-19T19:00:24.849Z,52.99
2018-09-19T19:02:53.169Z,51.90
2018-09-19T19:05:21.580Z,51.58
2018-09-19T19:07:49.682Z,50.73
2018-09-19T19:10:18.586Z,51.24
2018-09-19T19:12:46.743Z,51.50
2018-09-19T19:15:14.689Z,51.55
2018-09-19T19:17:42.591Z,51.65
2018-09-19T19:20:10.656Z,50.84
2018-09-19T19:22:38.623Z,51.41
2018-09-19T19:25:06.694Z,51.97
2018-09-19T19:27:34.749Z,52.07
2018-09-19T19:30:02.967Z,53.04
2018-09-19T19:32:31.829Z,53.04
2018-09-19T19:35:00.290Z,53.03
2018-09-19T19:37:29.997Z,53.67
2018-09-19T19:39:58.352Z,53.62
2018-09-19T19:42:26.359Z,53.19
2018-09-19T19:44:54.544Z,53.69
2018-09-19T19:47:41.829Z,54.60
2018-09-19T19:50:10.180Z,54.97
2018-09-19T19:52:40.908Z,55.19
2018-09-19T19:55:10.054Z,55.95
2018-09-19T19:57:38.274Z,56.32
2018-09-19T20:00:07.611Z,56.04
2018-09-19T20:02:37.290Z,55.83
2018-09-19T20:05:19.216Z,56.05
2018-09-19T20:07:47.461Z,56.63
2018-09-19T20:10:15.863Z,57.35
2018-09-19T20:12:43.957Z,57.55
2018-09-19T20:15:11.974Z,58.56
2018-09-19T20:17:40.520Z,58.91
2018-09-19T20:20:09.952Z,58.60
2018-09-19T20:22:37.909Z,58.85
2018-09-19T20:25:05.929Z,59.30
2018-09-19T20:27:36.853Z,59.15
2018-09-19T20:30:18.495Z,58.42
2018-09-19T20:32:46.399Z,57.76
2018-09-19T20:35:14.422Z,56.96
2018-09-19T20:37:44.224Z,56.47
2018-09-19T20:40:12.317Z,56.13
2018-09-19T20:42:40.151Z,55.05
2018-09-19T20:45:08.372Z,55.58
2018-09-19T20:47:36.603Z,55.86
2018-09-19T20:50:04.578Z,55.80
2018-09-19T20:52:33.034Z,55.49
2018-09-19T20:55:00.962Z,55.54
2018-09-19T20:57:29.034Z,55.27
2018-09-19T21:00:31.225Z,55.19
2018-09-19T21:02:59.923Z,55.24
2018-09-19T21:05:28.156Z,54.68
2018-09-19T21:07:56.121Z,55.07
2018-09-19T21:10:24.034Z,54.98
2018-09-19T21:12:52.049Z,55.60
2018-09-19T21:15:20.089Z,55.24
2018-09-19T21:17:48.144Z,56.68
2018-09-19T21:20:16.335Z,57.15
2018-09-19T21:22:44.554Z,56.95
2018-09-19T21:25:12.528Z,57.61
2018-09-19T21:27:40.405Z,59.36
2018-09-19T21:30:08.370Z,57.83
2018-09-19T21:32:36.298Z,58.79
2018-09-19T21:35:04.468Z,58.60
2018-09-19T21:37:32.579Z,58.00
2018-09-19T21:40:00.886Z,58.09
2018-09-19T21:42:28.802Z,58.56
2018-09-19T21:44:57.212Z,58.07
2018-09-19T21:47:25.156Z,57.61
2018-09-19T21:49:53.787Z,58.48
2018-09-19T21:52:21.761Z,58.27
2018-09-19T21:54:49.640Z,57.89
2018-09-19T21:57:17.606Z,59.10
2018-09-19T21:59:45.531Z,60.08
2018-09-19T22:02:16.590Z,60.09
2018-09-19T22:04:45.560Z,60.44
2018-09-19T22:07:13.579Z,60.60
2018-09-19T22:09:41.757Z,61.09
2018-09-19T22:12:10.888Z,61.30
2018-09-19T22:14:39.971Z,61.09
2018-09-19T22:17:07.967Z,60.99
2018-09-19T22:19:36.226Z,61.68
2018-09-19T22:22:04.158Z,62.86
2018-09-19T22:24:32.474Z,62.38
2018-09-19T22:27:00.644Z,62.98
2018-09-19T22:29:28.661Z,62.21
2018-09-19T22:31:56.723Z,62.61
2018-09-19T22:34:24.898Z,63.57
2018-09-19T22:36:53.341Z,62.40
2018-09-19T22:39:21.389Z,61.86
2018-09-19T22:41:49.979Z,61.71
2018-09-19T22:44:19.056Z,61.41
2018-09-19T22:50:08.144Z,59.96
2018-09-19T22:52:37.225Z,60.31
2018-09-19T22:55:05.498Z,59.71
2018-09-19T22:57:33.532Z,59.47
2018-09-19T23:00:01.446Z,60.26
2018-09-19T23:02:29.511Z,61.10
2018-09-19T23:04:58.495Z,60.51
2018-09-19T23:07:26.478Z,60.39
2018-09-19T23:09:54.605Z,60.35
2018-09-19T23:12:22.571Z,59.87
2018-09-19T23:14:53.301Z,59.51
2018-09-19T23:17:21.614Z,60.50
2018-09-19T23:19:53.449Z,60.38
2018-09-19T23:22:22.776Z,60.85
2018-09-19T23:24:52.755Z,60.96
2018-09-19T23:27:21.890Z,61.19
2018-09-19T23:29:49.946Z,60.45
2018-09-19T23:32:17.999Z,60.42
2018-09-19T23:34:46.024Z,60.88
2018-09-19T23:37:13.984Z,60.10
2018-09-19T23:39:42.192Z,60.12
2018-09-19T23:42:10.904Z,60.70
2018-09-19T23:44:39.059Z,61.19
2018-09-19T23:47:07.117Z,61.72
2018-09-19T23:49:35.279Z,61.71
2018-09-19T23:52:03.621Z,62.32
2018-09-19T23:54:31.714Z,61.58
2018-09-19T23:56:59.857Z,61.55
2018-09-19T23:59:27.869Z,61.46
